sensor_id;sensor_type;location;lat;lon;timestamp;P1;durP1;ratioP1;P2;durP2;ratioP2
14760;SDS011;7472;45.396;5.272;2023-04-23T00:01:03;8.05;;;4.68;;
14760;SDS011;7472;45.396;5.272;2023-04-23T00:03:31;9.05;;;5.25;;
14760;SDS011;7472;45.396;5.272;2023-04-23T00:06:00;5.07;;;4.10;;
14760;SDS011;7472;45.396;5.272;2023-04-23T00:08:29;13.30;;;5.28;;
14760;SDS011;7472;45.396;5.272;2023-04-23T00:10:58;10.02;;;6.32;;
14760;SDS011;7472;45.396;5.272;2023-04-23T00:13:25;7.10;;;5.57;;
14760;SDS011;7472;45.396;5.272;2023-04-23T00:15:54;24.00;;;21.55;;
14760;SDS011;7472;45.396;5.272;2023-04-23T00:18:22;20.20;;;13.10;;
14760;SDS011;7472;45.396;5.272;2023-04-23T00:20:49;13.40;;;8.23;;
14760;SDS011;7472;45.396;5.272;2023-04-23T00:23:16;14.05;;;7.93;;
14760;SDS011;7472;45.396;5.272;2023-04-23T00:25:44;9.68;;;7.00;;
14760;SDS011;7472;45.396;5.272;2023-04-23T00:28:11;9.07;;;7.25;;
14760;SDS011;7472;45.396;5.272;2023-04-23T00:30:38;38.30;;;29.40;;
14760;SDS011;7472;45.396;5.272;2023-04-23T00:33:07;19.27;;;14.55;;
14760;SDS011;7472;45.396;5.272;2023-04-23T00:35:35;36.67;;;25.98;;
14760;SDS011;7472;45.396;5.272;2023-04-23T00:38:03;21.48;;;14.65;;
14760;SDS011;7472;45.396;5.272;2023-04-23T00:40:31;10.38;;;6.60;;
14760;SDS011;7472;45.396;5.272;2023-04-23T00:42:58;9.95;;;7.07;;
14760;SDS011;7472;45.396;5.272;2023-04-23T00:45:26;7.70;;;6.60;;
14760;SDS011;7472;45.396;5.272;2023-04-23T00:47:53;20.25;;;13.55;;
14760;SDS011;7472;45.396;5.272;2023-04-23T00:50:23;11.35;;;6.53;;
14760;SDS011;7472;45.396;5.272;2023-04-23T00:52:50;9.23;;;4.80;;
14760;SDS011;7472;45.396;5.272;2023-04-23T00:55:18;7.95;;;4.88;;
14760;SDS011;7472;45.396;5.272;2023-04-23T00:57:46;7.30;;;4.47;;
14760;SDS011;7472;45.396;5.272;2023-04-23T01:00:14;4.80;;;4.32;;
14760;SDS011;7472;45.396;5.272;2023-04-23T01:02:42;7.57;;;4.60;;
14760;SDS011;7472;45.396;5.272;2023-04-23T01:05:10;9.10;;;4.47;;
14760;SDS011;7472;45.396;5.272;2023-04-23T01:07:39;8.57;;;4.65;;
14760;SDS011;7472;45.396;5.272;2023-04-23T01:10:07;6.10;;;4.75;;
14760;SDS011;7472;45.396;5.272;2023-04-23T01:12:35;7.28;;;5.20;;
14760;SDS011;7472;45.396;5.272;2023-04-23T01:15:02;10.35;;;6.55;;
14760;SDS011;7472;45.396;5.272;2023-04-23T01:17:30;11.65;;;8.65;;
14760;SDS011;7472;45.396;5.272;2023-04-23T01:19:58;10.23;;;6.93;;
14760;SDS011;7472;45.396;5.272;2023-04-23T01:22:27;10.48;;;5.70;;
14760;SDS011;7472;45.396;5.272;2023-04-23T01:24:54;8.60;;;6.47;;
14760;SDS011;7472;45.396;5.272;2023-04-23T01:27:22;27.17;;;16.02;;
14760;SDS011;7472;45.396;5.272;2023-04-23T01:29:50;90.32;;;56.38;;
14760;SDS011;7472;45.396;5.272;2023-04-23T01:32:18;83.00;;;56.50;;
14760;SDS011;7472;45.396;5.272;2023-04-23T01:34:45;20.45;;;14.63;;
14760;SDS011;7472;45.396;5.272;2023-04-23T01:37:13;10.48;;;7.00;;
14760;SDS011;7472;45.396;5.272;2023-04-23T01:39:42;7.63;;;5.45;;
14760;SDS011;7472;45.396;5.272;2023-04-23T01:42:10;12.07;;;8.38;;
14760;SDS011;7472;45.396;5.272;2023-04-23T01:44:37;10.38;;;6.80;;
14760;SDS011;7472;45.396;5.272;2023-04-23T01:47:05;5.53;;;4.93;;
14760;SDS011;7472;45.396;5.272;2023-04-23T01:49:33;57.38;;;38.67;;
14760;SDS011;7472;45.396;5.272;2023-04-23T01:52:00;87.75;;;57.25;;
14760;SDS011;7472;45.396;5.272;2023-04-23T01:54:28;108.75;;;66.07;;
14760;SDS011;7472;45.396;5.272;2023-04-23T01:56:56;14.00;;;8.52;;
14760;SDS011;7472;45.396;5.272;2023-04-23T01:59:24;35.60;;;23.77;;
14760;SDS011;7472;45.396;5.272;2023-04-23T02:01:51;144.75;;;88.55;;
14760;SDS011;7472;45.396;5.272;2023-04-23T02:04:19;34.00;;;22.52;;
14760;SDS011;7472;45.396;5.272;2023-04-23T02:06:47;26.63;;;17.88;;
14760;SDS011;7472;45.396;5.272;2023-04-23T02:09:15;8.02;;;6.78;;
14760;SDS011;7472;45.396;5.272;2023-04-23T02:11:43;9.05;;;5.03;;
14760;SDS011;7472;45.396;5.272;2023-04-23T02:14:12;32.20;;;28.52;;
14760;SDS011;7472;45.396;5.272;2023-04-23T02:16:39;18.45;;;15.80;;
14760;SDS011;7472;45.396;5.272;2023-04-23T02:19:06;30.95;;;28.08;;
14760;SDS011;7472;45.396;5.272;2023-04-23T02:21:34;15.32;;;13.73;;
14760;SDS011;7472;45.396;5.272;2023-04-23T02:24:01;7.97;;;5.70;;
14760;SDS011;7472;45.396;5.272;2023-04-23T02:26:29;6.00;;;5.13;;
14760;SDS011;7472;45.396;5.272;2023-04-23T02:28:56;54.60;;;49.50;;
14760;SDS011;7472;45.396;5.272;2023-04-23T02:31:25;49.95;;;44.70;;
14760;SDS011;7472;45.396;5.272;2023-04-23T02:33:53;42.92;;;38.30;;
14760;SDS011;7472;45.396;5.272;2023-04-23T02:36:20;11.98;;;9.95;;
14760;SDS011;7472;45.396;5.272;2023-04-23T02:38:47;11.77;;;9.55;;
14760;SDS011;7472;45.396;5.272;2023-04-23T02:41:15;59.25;;;49.65;;
14760;SDS011;7472;45.396;5.272;2023-04-23T02:43:42;68.68;;;53.35;;
14760;SDS011;7472;45.396;5.272;2023-04-23T02:46:10;69.95;;;54.30;;
14760;SDS011;7472;45.396;5.272;2023-04-23T02:48:39;19.30;;;15.32;;
14760;SDS011;7472;45.396;5.272;2023-04-23T02:51:07;34.80;;;26.98;;
14760;SDS011;7472;45.396;5.272;2023-04-23T02:53:34;10.95;;;8.57;;
14760;SDS011;7472;45.396;5.272;2023-04-23T02:56:02;10.73;;;8.27;;
14760;SDS011;7472;45.396;5.272;2023-04-23T02:58:30;13.90;;;12.50;;
14760;SDS011;7472;45.396;5.272;2023-04-23T03:00:57;16.67;;;13.90;;
14760;SDS011;7472;45.396;5.272;2023-04-23T03:03:25;26.63;;;23.75;;
14760;SDS011;7472;45.396;5.272;2023-04-23T03:05:57;10.70;;;7.90;;
14760;SDS011;7472;45.396;5.272;2023-04-23T03:08:24;20.48;;;14.80;;
14760;SDS011;7472;45.396;5.272;2023-04-23T03:10:52;23.63;;;19.58;;
14760;SDS011;7472;45.396;5.272;2023-04-23T03:13:19;7.93;;;5.75;;
14760;SDS011;7472;45.396;5.272;2023-04-23T03:15:47;8.35;;;5.13;;
14760;SDS011;7472;45.396;5.272;2023-04-23T03:18:14;32.78;;;26.73;;
14760;SDS011;7472;45.396;5.272;2023-04-23T03:20:41;10.60;;;9.50;;
14760;SDS011;7472;45.396;5.272;2023-04-23T03:23:10;16.52;;;14.40;;
14760;SDS011;7472;45.396;5.272;2023-04-23T03:25:37;11.98;;;8.13;;
14760;SDS011;7472;45.396;5.272;2023-04-23T03:28:05;15.20;;;13.30;;
14760;SDS011;7472;45.396;5.272;2023-04-23T03:30:32;9.55;;;7.78;;
14760;SDS011;7472;45.396;5.272;2023-04-23T03:33:00;16.90;;;11.45;;
14760;SDS011;7472;45.396;5.272;2023-04-23T03:35:27;10.45;;;6.03;;
14760;SDS011;7472;45.396;5.272;2023-04-23T03:37:54;7.35;;;5.45;;
14760;SDS011;7472;45.396;5.272;2023-04-23T03:40:23;11.65;;;7.50;;
14760;SDS011;7472;45.396;5.272;2023-04-23T03:42:51;8.43;;;7.57;;
14760;SDS011;7472;45.396;5.272;2023-04-23T03:45:18;7.18;;;6.13;;
14760;SDS011;7472;45.396;5.272;2023-04-23T03:47:45;7.72;;;5.93;;
14760;SDS011;7472;45.396;5.272;2023-04-23T03:50:13;9.52;;;5.82;;
14760;SDS011;7472;45.396;5.272;2023-04-23T03:52:41;7.88;;;5.25;;
14760;SDS011;7472;45.396;5.272;2023-04-23T03:55:09;9.98;;;5.45;;
14760;SDS011;7472;45.396;5.272;2023-04-23T03:57:37;12.70;;;7.03;;
14760;SDS011;7472;45.396;5.272;2023-04-23T04:00:05;10.80;;;6.43;;
14760;SDS011;7472;45.396;5.272;2023-04-23T04:02:36;9.50;;;6.85;;
14760;SDS011;7472;45.396;5.272;2023-04-23T04:05:03;9.73;;;6.45;;
14760;SDS011;7472;45.396;5.272;2023-04-23T04:07:31;8.27;;;7.10;;
14760;SDS011;7472;45.396;5.272;2023-04-23T04:09:59;10.77;;;6.65;;
14760;SDS011;7472;45.396;5.272;2023-04-23T04:12:27;8.27;;;5.97;;
14760;SDS011;7472;45.396;5.272;2023-04-23T04:14:56;7.65;;;6.22;;
14760;SDS011;7472;45.396;5.272;2023-04-23T04:17:23;11.30;;;6.60;;
14760;SDS011;7472;45.396;5.272;2023-04-23T04:19:51;7.65;;;6.43;;
14760;SDS011;7472;45.396;5.272;2023-04-23T04:22:18;8.98;;;6.60;;
14760;SDS011;7472;45.396;5.272;2023-04-23T04:24:46;9.07;;;6.40;;
14760;SDS011;7472;45.396;5.272;2023-04-23T04:27:16;13.73;;;6.68;;
14760;SDS011;7472;45.396;5.272;2023-04-23T04:29:43;9.30;;;7.25;;
14760;SDS011;7472;45.396;5.272;2023-04-23T04:32:12;14.20;;;7.20;;
14760;SDS011;7472;45.396;5.272;2023-04-23T04:34:39;10.75;;;7.63;;
14760;SDS011;7472;45.396;5.272;2023-04-23T04:37:07;8.35;;;6.90;;
14760;SDS011;7472;45.396;5.272;2023-04-23T04:39:35;11.27;;;7.47;;
14760;SDS011;7472;45.396;5.272;2023-04-23T04:42:03;11.00;;;7.07;;
14760;SDS011;7472;45.396;5.272;2023-04-23T04:44:31;8.95;;;6.88;;
14760;SDS011;7472;45.396;5.272;2023-04-23T04:46:58;10.13;;;7.13;;
14760;SDS011;7472;45.396;5.272;2023-04-23T04:49:27;9.48;;;8.02;;
14760;SDS011;7472;45.396;5.272;2023-04-23T04:51:55;9.77;;;7.78;;
14760;SDS011;7472;45.396;5.272;2023-04-23T04:54:22;9.38;;;6.95;;
14760;SDS011;7472;45.396;5.272;2023-04-23T04:56:49;12.00;;;7.72;;
14760;SDS011;7472;45.396;5.272;2023-04-23T04:59:17;12.88;;;7.90;;
14760;SDS011;7472;45.396;5.272;2023-04-23T05:01:44;10.43;;;7.22;;
14760;SDS011;7472;45.396;5.272;2023-04-23T05:04:12;14.90;;;7.60;;
14760;SDS011;7472;45.396;5.272;2023-04-23T05:06:40;12.00;;;7.18;;
14760;SDS011;7472;45.396;5.272;2023-04-23T05:09:08;7.25;;;6.55;;
14760;SDS011;7472;45.396;5.272;2023-04-23T05:11:35;8.98;;;6.53;;
14760;SDS011;7472;45.396;5.272;2023-04-23T05:14:04;9.25;;;6.10;;
14760;SDS011;7472;45.396;5.272;2023-04-23T05:16:32;8.35;;;5.88;;
14760;SDS011;7472;45.396;5.272;2023-04-23T05:18:59;7.30;;;5.72;;
14760;SDS011;7472;45.396;5.272;2023-04-23T05:21:27;7.75;;;5.70;;
14760;SDS011;7472;45.396;5.272;2023-04-23T05:23:57;8.88;;;6.07;;
14760;SDS011;7472;45.396;5.272;2023-04-23T05:26:24;7.75;;;5.63;;
14760;SDS011;7472;45.396;5.272;2023-04-23T05:28:51;9.32;;;6.90;;
14760;SDS011;7472;45.396;5.272;2023-04-23T05:31:19;10.40;;;7.13;;
14760;SDS011;7472;45.396;5.272;2023-04-23T05:33:47;9.63;;;6.45;;
14760;SDS011;7472;45.396;5.272;2023-04-23T05:36:14;7.80;;;6.38;;
14760;SDS011;7472;45.396;5.272;2023-04-23T05:38:41;11.00;;;6.78;;
14760;SDS011;7472;45.396;5.272;2023-04-23T05:41:10;9.40;;;6.95;;
14760;SDS011;7472;45.396;5.272;2023-04-23T05:43:37;8.13;;;5.57;;
14760;SDS011;7472;45.396;5.272;2023-04-23T05:46:05;9.30;;;6.72;;
14760;SDS011;7472;45.396;5.272;2023-04-23T05:48:32;12.15;;;6.47;;
14760;SDS011;7472;45.396;5.272;2023-04-23T05:50:59;9.98;;;6.32;;
14760;SDS011;7472;45.396;5.272;2023-04-23T05:53:27;7.38;;;5.85;;
14760;SDS011;7472;45.396;5.272;2023-04-23T05:55:54;10.32;;;5.90;;
14760;SDS011;7472;45.396;5.272;2023-04-23T05:58:23;7.90;;;5.20;;
14760;SDS011;7472;45.396;5.272;2023-04-23T06:00:51;7.50;;;5.00;;
14760;SDS011;7472;45.396;5.272;2023-04-23T06:03:18;7.22;;;5.30;;
14760;SDS011;7472;45.396;5.272;2023-04-23T06:05:46;6.55;;;5.22;;
14760;SDS011;7472;45.396;5.272;2023-04-23T06:08:13;8.50;;;5.60;;
14760;SDS011;7472;45.396;5.272;2023-04-23T06:10:40;5.55;;;5.00;;
14760;SDS011;7472;45.396;5.272;2023-04-23T06:13:08;7.15;;;5.90;;
14760;SDS011;7472;45.396;5.272;2023-04-23T06:15:37;11.88;;;6.75;;
14760;SDS011;7472;45.396;5.272;2023-04-23T06:18:04;9.98;;;6.13;;
14760;SDS011;7472;45.396;5.272;2023-04-23T06:20:32;7.72;;;6.85;;
14760;SDS011;7472;45.396;5.272;2023-04-23T06:22:59;8.35;;;6.78;;
14760;SDS011;7472;45.396;5.272;2023-04-23T06:25:27;10.50;;;6.32;;
14760;SDS011;7472;45.396;5.272;2023-04-23T06:27:55;9.35;;;6.18;;
14760;SDS011;7472;45.396;5.272;2023-04-23T06:30:23;10.73;;;7.50;;
14760;SDS011;7472;45.396;5.272;2023-04-23T06:32:52;10.55;;;7.75;;
14760;SDS011;7472;45.396;5.272;2023-04-23T06:35:19;10.55;;;7.20;;
14760;SDS011;7472;45.396;5.272;2023-04-23T06:37:46;14.25;;;7.80;;
14760;SDS011;7472;45.396;5.272;2023-04-23T06:40:14;7.85;;;5.90;;
14760;SDS011;7472;45.396;5.272;2023-04-23T06:42:41;7.32;;;5.63;;
14760;SDS011;7472;45.396;5.272;2023-04-23T06:45:10;6.78;;;5.68;;
14760;SDS011;7472;45.396;5.272;2023-04-23T06:47:39;11.27;;;5.53;;
14760;SDS011;7472;45.396;5.272;2023-04-23T06:50:08;8.55;;;5.78;;
14760;SDS011;7472;45.396;5.272;2023-04-23T06:52:35;6.22;;;4.53;;
14760;SDS011;7472;45.396;5.272;2023-04-23T06:55:03;6.60;;;4.30;;
14760;SDS011;7472;45.396;5.272;2023-04-23T06:57:30;5.55;;;4.70;;
14760;SDS011;7472;45.396;5.272;2023-04-23T06:59:58;5.72;;;4.90;;
14760;SDS011;7472;45.396;5.272;2023-04-23T07:02:25;6.07;;;4.85;;
14760;SDS011;7472;45.396;5.272;2023-04-23T07:04:53;6.10;;;4.70;;
14760;SDS011;7472;45.396;5.272;2023-04-23T07:07:22;6.22;;;4.50;;
14760;SDS011;7472;45.396;5.272;2023-04-23T07:09:49;4.00;;;3.60;;
14760;SDS011;7472;45.396;5.272;2023-04-23T07:12:16;6.97;;;3.58;;
14760;SDS011;7472;45.396;5.272;2023-04-23T07:14:44;3.88;;;3.50;;
14760;SDS011;7472;45.396;5.272;2023-04-23T07:17:11;5.72;;;3.30;;
14760;SDS011;7472;45.396;5.272;2023-04-23T07:19:38;4.93;;;4.15;;
14760;SDS011;7472;45.396;5.272;2023-04-23T07:22:06;3.55;;;3.25;;
14760;SDS011;7472;45.396;5.272;2023-04-23T07:24:35;6.63;;;3.70;;
14760;SDS011;7472;45.396;5.272;2023-04-23T07:27:02;7.03;;;4.10;;
14760;SDS011;7472;45.396;5.272;2023-04-23T07:29:30;3.85;;;3.50;;
14760;SDS011;7472;45.396;5.272;2023-04-23T07:31:57;6.55;;;4.20;;
14760;SDS011;7472;45.396;5.272;2023-04-23T07:34:25;6.13;;;3.75;;
14760;SDS011;7472;45.396;5.272;2023-04-23T07:36:52;8.75;;;4.07;;
14760;SDS011;7472;45.396;5.272;2023-04-23T07:39:20;5.10;;;4.13;;
14760;SDS011;7472;45.396;5.272;2023-04-23T07:41:49;5.10;;;4.30;;
14760;SDS011;7472;45.396;5.272;2023-04-23T07:44:16;4.40;;;4.00;;
14760;SDS011;7472;45.396;5.272;2023-04-23T07:46:44;3.90;;;3.60;;
14760;SDS011;7472;45.396;5.272;2023-04-23T07:49:11;7.78;;;3.88;;
14760;SDS011;7472;45.396;5.272;2023-04-23T07:51:39;7.07;;;3.95;;
14760;SDS011;7472;45.396;5.272;2023-04-23T07:54:06;5.13;;;3.33;;
14760;SDS011;7472;45.396;5.272;2023-04-23T07:56:34;3.55;;;2.60;;
14760;SDS011;7472;45.396;5.272;2023-04-23T07:59:02;5.43;;;3.42;;
14760;SDS011;7472;45.396;5.272;2023-04-23T08:01:31;4.18;;;3.38;;
14760;SDS011;7472;45.396;5.272;2023-04-23T08:03:58;4.47;;;3.17;;
14760;SDS011;7472;45.396;5.272;2023-04-23T08:06:27;3.65;;;2.30;;
14760;SDS011;7472;45.396;5.272;2023-04-23T08:08:55;4.93;;;2.72;;
14760;SDS011;7472;45.396;5.272;2023-04-23T08:11:24;3.78;;;2.13;;
14760;SDS011;7472;45.396;5.272;2023-04-23T08:13:53;2.80;;;2.33;;
14760;SDS011;7472;45.396;5.272;2023-04-23T08:16:22;3.53;;;1.80;;
14760;SDS011;7472;45.396;5.272;2023-04-23T08:18:50;3.85;;;2.17;;
14760;SDS011;7472;45.396;5.272;2023-04-23T08:21:17;3.80;;;2.22;;
14760;SDS011;7472;45.396;5.272;2023-04-23T08:23:46;3.85;;;2.40;;
14760;SDS011;7472;45.396;5.272;2023-04-23T08:26:13;4.15;;;2.50;;
14760;SDS011;7472;45.396;5.272;2023-04-23T08:28:41;3.92;;;2.33;;
14760;SDS011;7472;45.396;5.272;2023-04-23T08:31:08;2.42;;;2.22;;
14760;SDS011;7472;45.396;5.272;2023-04-23T08:33:37;2.38;;;1.80;;
14760;SDS011;7472;45.396;5.272;2023-04-23T08:36:05;3.20;;;2.53;;
14760;SDS011;7472;45.396;5.272;2023-04-23T08:38:32;3.53;;;2.22;;
14760;SDS011;7472;45.396;5.272;2023-04-23T08:40:59;3.35;;;1.95;;
14760;SDS011;7472;45.396;5.272;2023-04-23T08:43:29;4.63;;;2.03;;
14760;SDS011;7472;45.396;5.272;2023-04-23T08:45:58;2.70;;;2.50;;
14760;SDS011;7472;45.396;5.272;2023-04-23T08:48:28;2.58;;;1.67;;
14760;SDS011;7472;45.396;5.272;2023-04-23T08:50:57;3.33;;;2.20;;
14760;SDS011;7472;45.396;5.272;2023-04-23T08:53:25;4.40;;;2.47;;
14760;SDS011;7472;45.396;5.272;2023-04-23T08:55:53;2.78;;;2.20;;
14760;SDS011;7472;45.396;5.272;2023-04-23T08:58:21;2.80;;;2.53;;
14760;SDS011;7472;45.396;5.272;2023-04-23T09:00:52;3.55;;;3.25;;
14760;SDS011;7472;45.396;5.272;2023-04-23T09:03:20;3.05;;;2.00;;
14760;SDS011;7472;45.396;5.272;2023-04-23T09:05:48;4.05;;;2.28;;
14760;SDS011;7472;45.396;5.272;2023-04-23T09:08:17;3.78;;;2.22;;
14760;SDS011;7472;45.396;5.272;2023-04-23T09:10:45;3.95;;;2.58;;
14760;SDS011;7472;45.396;5.272;2023-04-23T09:13:14;5.55;;;2.20;;
14760;SDS011;7472;45.396;5.272;2023-04-23T09:15:42;3.63;;;2.47;;
14760;SDS011;7472;45.396;5.272;2023-04-23T09:18:09;6.53;;;2.60;;
14760;SDS011;7472;45.396;5.272;2023-04-23T09:20:37;5.45;;;2.38;;
14760;SDS011;7472;45.396;5.272;2023-04-23T09:23:07;3.35;;;2.40;;
14760;SDS011;7472;45.396;5.272;2023-04-23T09:25:36;5.18;;;2.33;;
14760;SDS011;7472;45.396;5.272;2023-04-23T09:28:05;6.88;;;3.72;;
14760;SDS011;7472;45.396;5.272;2023-04-23T09:30:37;3.80;;;2.17;;
14760;SDS011;7472;45.396;5.272;2023-04-23T09:33:05;5.07;;;2.90;;
14760;SDS011;7472;45.396;5.272;2023-04-23T09:35:32;4.95;;;2.95;;
14760;SDS011;7472;45.396;5.272;2023-04-23T09:38:00;3.38;;;2.60;;
14760;SDS011;7472;45.396;5.272;2023-04-23T09:40:32;4.47;;;2.30;;
14760;SDS011;7472;45.396;5.272;2023-04-23T09:43:02;2.85;;;1.92;;
14760;SDS011;7472;45.396;5.272;2023-04-23T09:45:30;2.03;;;1.63;;
14760;SDS011;7472;45.396;5.272;2023-04-23T09:47:59;2.72;;;2.15;;
14760;SDS011;7472;45.396;5.272;2023-04-23T09:50:33;2.75;;;2.05;;
14760;SDS011;7472;45.396;5.272;2023-04-23T09:53:01;5.28;;;1.85;;
14760;SDS011;7472;45.396;5.272;2023-04-23T09:55:29;3.47;;;1.98;;
14760;SDS011;7472;45.396;5.272;2023-04-23T09:57:59;4.93;;;2.45;;
14760;SDS011;7472;45.396;5.272;2023-04-23T10:00:31;4.13;;;2.45;;
14760;SDS011;7472;45.396;5.272;2023-04-23T10:02:58;4.68;;;2.20;;
14760;SDS011;7472;45.396;5.272;2023-04-23T10:05:26;3.70;;;2.20;;
14760;SDS011;7472;45.396;5.272;2023-04-23T10:07:54;3.65;;;2.50;;
14760;SDS011;7472;45.396;5.272;2023-04-23T10:10:22;5.22;;;3.13;;
14760;SDS011;7472;45.396;5.272;2023-04-23T10:12:50;3.35;;;1.95;;
14760;SDS011;7472;45.396;5.272;2023-04-23T10:15:18;5.40;;;2.38;;
14760;SDS011;7472;45.396;5.272;2023-04-23T10:17:47;4.03;;;2.20;;
14760;SDS011;7472;45.396;5.272;2023-04-23T10:20:15;2.78;;;2.25;;
14760;SDS011;7472;45.396;5.272;2023-04-23T10:22:43;3.80;;;2.42;;
14760;SDS011;7472;45.396;5.272;2023-04-23T10:25:11;3.70;;;1.77;;
14760;SDS011;7472;45.396;5.272;2023-04-23T10:27:39;2.35;;;2.10;;
14760;SDS011;7472;45.396;5.272;2023-04-23T10:30:08;2.25;;;1.67;;
14760;SDS011;7472;45.396;5.272;2023-04-23T10:32:36;3.20;;;2.10;;
14760;SDS011;7472;45.396;5.272;2023-04-23T10:35:05;4.50;;;2.45;;
14760;SDS011;7472;45.396;5.272;2023-04-23T10:37:33;5.75;;;2.60;;
14760;SDS011;7472;45.396;5.272;2023-04-23T10:40:04;2.65;;;2.17;;
14760;SDS011;7472;45.396;5.272;2023-04-23T10:42:33;5.30;;;4.28;;
14760;SDS011;7472;45.396;5.272;2023-04-23T10:45:01;5.40;;;1.98;;
14760;SDS011;7472;45.396;5.272;2023-04-23T10:47:28;3.70;;;1.90;;
14760;SDS011;7472;45.396;5.272;2023-04-23T10:49:56;7.32;;;2.88;;
14760;SDS011;7472;45.396;5.272;2023-04-23T10:52:25;3.33;;;1.50;;
14760;SDS011;7472;45.396;5.272;2023-04-23T10:54:55;3.47;;;1.73;;
14760;SDS011;7472;45.396;5.272;2023-04-23T10:57:23;6.38;;;1.80;;
14760;SDS011;7472;45.396;5.272;2023-04-23T10:59:51;2.25;;;1.35;;
14760;SDS011;7472;45.396;5.272;2023-04-23T11:02:19;2.20;;;1.60;;
14760;SDS011;7472;45.396;5.272;2023-04-23T11:04:52;5.18;;;2.20;;
14760;SDS011;7472;45.396;5.272;2023-04-23T11:07:23;3.42;;;1.52;;
14760;SDS011;7472;45.396;5.272;2023-04-23T11:09:52;2.05;;;1.70;;
14760;SDS011;7472;45.396;5.272;2023-04-23T11:12:31;2.55;;;1.60;;
14760;SDS011;7472;45.396;5.272;2023-04-23T11:14:59;5.88;;;2.20;;
14760;SDS011;7472;45.396;5.272;2023-04-23T11:20:22;2.20;;;1.75;;
14760;SDS011;7472;45.396;5.272;2023-04-23T11:22:50;3.83;;;1.65;;
14760;SDS011;7472;45.396;5.272;2023-04-23T11:25:19;4.30;;;1.90;;
14760;SDS011;7472;45.396;5.272;2023-04-23T11:27:48;9.65;;;1.98;;
14760;SDS011;7472;45.396;5.272;2023-04-23T11:30:16;3.85;;;1.75;;
14760;SDS011;7472;45.396;5.272;2023-04-23T11:32:44;2.33;;;1.77;;
14760;SDS011;7472;45.396;5.272;2023-04-23T11:35:13;5.57;;;2.13;;
14760;SDS011;7472;45.396;5.272;2023-04-23T11:37:41;3.22;;;1.73;;
14760;SDS011;7472;45.396;5.272;2023-04-23T11:40:10;4.53;;;1.73;;
14760;SDS011;7472;45.396;5.272;2023-04-23T11:42:45;5.22;;;1.80;;
14760;SDS011;7472;45.396;5.272;2023-04-23T11:45:16;4.78;;;2.10;;
14760;SDS011;7472;45.396;5.272;2023-04-23T11:47:44;2.15;;;1.95;;
14760;SDS011;7472;45.396;5.272;2023-04-23T11:50:16;3.35;;;1.70;;
14760;SDS011;7472;45.396;5.272;2023-04-23T11:52:43;1.52;;;1.30;;
14760;SDS011;7472;45.396;5.272;2023-04-23T11:55:11;1.85;;;1.60;;
14760;SDS011;7472;45.396;5.272;2023-04-23T11:57:42;3.47;;;1.73;;
14760;SDS011;7472;45.396;5.272;2023-04-23T12:00:13;2.20;;;1.60;;
14760;SDS011;7472;45.396;5.272;2023-04-23T12:02:54;2.55;;;1.52;;
14760;SDS011;7472;45.396;5.272;2023-04-23T12:05:22;2.90;;;1.70;;
14760;SDS011;7472;45.396;5.272;2023-04-23T12:07:53;1.77;;;1.25;;
14760;SDS011;7472;45.396;5.272;2023-04-23T12:10:21;2.65;;;1.50;;
14760;SDS011;7472;45.396;5.272;2023-04-23T12:12:49;2.15;;;1.35;;
14760;SDS011;7472;45.396;5.272;2023-04-23T12:15:18;1.95;;;1.50;;
14760;SDS011;7472;45.396;5.272;2023-04-23T12:17:49;7.45;;;1.60;;
14760;SDS011;7472;45.396;5.272;2023-04-23T12:20:19;2.80;;;1.83;;
14760;SDS011;7472;45.396;5.272;2023-04-23T12:22:47;3.70;;;1.70;;
14760;SDS011;7472;45.396;5.272;2023-04-23T12:25:15;4.93;;;1.90;;
14760;SDS011;7472;45.396;5.272;2023-04-23T12:27:43;2.58;;;1.50;;
14760;SDS011;7472;45.396;5.272;2023-04-23T12:30:11;2.13;;;1.58;;
14760;SDS011;7472;45.396;5.272;2023-04-23T12:32:40;2.50;;;1.73;;
14760;SDS011;7472;45.396;5.272;2023-04-23T12:35:08;3.20;;;1.88;;
14760;SDS011;7472;45.396;5.272;2023-04-23T12:37:36;3.35;;;2.08;;
14760;SDS011;7472;45.396;5.272;2023-04-23T12:40:04;2.40;;;1.63;;
14760;SDS011;7472;45.396;5.272;2023-04-23T12:42:33;2.92;;;1.80;;
14760;SDS011;7472;45.396;5.272;2023-04-23T12:45:05;2.25;;;1.75;;
14760;SDS011;7472;45.396;5.272;2023-04-23T12:47:32;3.50;;;1.63;;
14760;SDS011;7472;45.396;5.272;2023-04-23T12:50:02;1.73;;;1.60;;
14760;SDS011;7472;45.396;5.272;2023-04-23T12:52:29;5.07;;;1.98;;
14760;SDS011;7472;45.396;5.272;2023-04-23T12:54:57;3.75;;;1.85;;
14760;SDS011;7472;45.396;5.272;2023-04-23T12:57:25;4.15;;;1.88;;
14760;SDS011;7472;45.396;5.272;2023-04-23T12:59:53;2.70;;;1.80;;
14760;SDS011;7472;45.396;5.272;2023-04-23T13:02:21;3.38;;;1.70;;
14760;SDS011;7472;45.396;5.272;2023-04-23T13:04:49;6.65;;;1.85;;
14760;SDS011;7472;45.396;5.272;2023-04-23T13:07:20;3.85;;;2.15;;
14760;SDS011;7472;45.396;5.272;2023-04-23T13:09:47;3.58;;;2.03;;
14760;SDS011;7472;45.396;5.272;2023-04-23T13:12:14;5.32;;;2.20;;
14760;SDS011;7472;45.396;5.272;2023-04-23T13:14:42;5.07;;;2.20;;
14760;SDS011;7472;45.396;5.272;2023-04-23T13:17:09;3.30;;;2.28;;
14760;SDS011;7472;45.396;5.272;2023-04-23T13:19:37;2.13;;;1.92;;
14760;SDS011;7472;45.396;5.272;2023-04-23T13:22:04;2.38;;;1.80;;
14760;SDS011;7472;45.396;5.272;2023-04-23T13:24:33;2.60;;;2.03;;
14760;SDS011;7472;45.396;5.272;2023-04-23T13:27:01;3.63;;;1.70;;
14760;SDS011;7472;45.396;5.272;2023-04-23T13:29:28;3.08;;;1.95;;
14760;SDS011;7472;45.396;5.272;2023-04-23T13:31:56;2.15;;;1.80;;
14760;SDS011;7472;45.396;5.272;2023-04-23T13:34:23;3.55;;;2.22;;
14760;SDS011;7472;45.396;5.272;2023-04-23T13:36:50;3.28;;;2.40;;
14760;SDS011;7472;45.396;5.272;2023-04-23T13:39:18;2.40;;;1.80;;
14760;SDS011;7472;45.396;5.272;2023-04-23T13:41:49;1.92;;;1.75;;
14760;SDS011;7472;45.396;5.272;2023-04-23T13:44:17;1.95;;;1.85;;
14760;SDS011;7472;45.396;5.272;2023-04-23T13:46:44;3.38;;;2.22;;
14760;SDS011;7472;45.396;5.272;2023-04-23T13:49:11;3.17;;;2.35;;
14760;SDS011;7472;45.396;5.272;2023-04-23T13:51:39;5.32;;;2.03;;
14760;SDS011;7472;45.396;5.272;2023-04-23T13:54:06;3.92;;;2.25;;
14760;SDS011;7472;45.396;5.272;2023-04-23T13:56:34;2.90;;;2.13;;
14760;SDS011;7472;45.396;5.272;2023-04-23T13:59:03;6.00;;;2.28;;
14760;SDS011;7472;45.396;5.272;2023-04-23T14:01:30;7.15;;;2.30;;
14760;SDS011;7472;45.396;5.272;2023-04-23T14:03:58;2.20;;;2.00;;
14760;SDS011;7472;45.396;5.272;2023-04-23T14:06:25;4.68;;;2.20;;
14760;SDS011;7472;45.396;5.272;2023-04-23T14:08:52;2.92;;;2.33;;
14760;SDS011;7472;45.396;5.272;2023-04-23T14:11:20;4.68;;;2.60;;
14760;SDS011;7472;45.396;5.272;2023-04-23T14:13:47;3.25;;;2.50;;
14760;SDS011;7472;45.396;5.272;2023-04-23T14:16:16;4.57;;;2.55;;
14760;SDS011;7472;45.396;5.272;2023-04-23T14:18:43;3.40;;;2.20;;
14760;SDS011;7472;45.396;5.272;2023-04-23T14:21:11;5.20;;;2.30;;
14760;SDS011;7472;45.396;5.272;2023-04-23T14:23:42;2.25;;;1.67;;
14760;SDS011;7472;45.396;5.272;2023-04-23T14:26:11;6.50;;;1.10;;
14760;SDS011;7472;45.396;5.272;2023-04-23T14:28:45;1.40;;;1.30;;
14760;SDS011;7472;45.396;5.272;2023-04-23T14:31:13;0.40;;;0.40;;
14760;SDS011;7472;45.396;5.272;2023-04-23T14:33:42;1.25;;;0.52;;
14760;SDS011;7472;45.396;5.272;2023-04-23T14:36:09;0.75;;;0.75;;
14760;SDS011;7472;45.396;5.272;2023-04-23T14:38:36;0.73;;;0.50;;
14760;SDS011;7472;45.396;5.272;2023-04-23T14:41:04;0.88;;;0.63;;
14760;SDS011;7472;45.396;5.272;2023-04-23T14:43:31;0.30;;;0.30;;
14760;SDS011;7472;45.396;5.272;2023-04-23T14:45:59;0.50;;;0.50;;
14760;SDS011;7472;45.396;5.272;2023-04-23T14:48:26;0.50;;;0.40;;
14760;SDS011;7472;45.396;5.272;2023-04-23T14:50:55;0.50;;;0.45;;
14760;SDS011;7472;45.396;5.272;2023-04-23T14:53:23;2.05;;;0.60;;
14760;SDS011;7472;45.396;5.272;2023-04-23T14:55:50;3.65;;;0.65;;
14760;SDS011;7472;45.396;5.272;2023-04-23T14:58:17;2.35;;;0.77;;
14760;SDS011;7472;45.396;5.272;2023-04-23T15:00:45;2.17;;;0.70;;
14760;SDS011;7472;45.396;5.272;2023-04-23T15:03:13;3.10;;;1.80;;